EHRD/RTM METAR and TAF weather

Enter ICAO airport designator
Station Type Date Time Source
EHRD METAR 2018/10/21 03:55 UTC NOAA

EHRD 210355Z AUTO 20006KT 9999 OVC046 12/09 Q1029 NOSIG


Station Type Date Time Source
EHRD Decoded METAR 2018/10/21 03:55 UTC NOAA

Rotterdam Airport Zestienhoven, Netherlands (EHRD) 51-57N 004-27E -4M
Oct 20, 2018 - 11:55 PM EDT / 2018.10.21 0355 UTC
Wind: from the SSW (200 degrees) at 7 MPH (6 KT):0
Visibility: greater than 7 mile(s):0
Sky conditions: overcast
Temperature: 53 F (12 C)
Dew Point: 48 F (9 C)
Relative Humidity: 81%
Pressure (altimeter): 30.39 in. Hg (1029 hPa)
ob: EHRD 210355Z AUTO 20006KT 9999 OVC046 12/09 Q1029 NOSIG
cycle: 4

Station Type Date Time Source
EHRD TAF 2018/10/20 18:27 UTC NOAA

TAF EHRD 201716Z 2018/2124 25004KT CAVOK
BECMG 2018/2021 19004KT 4000 BR MIFG
BECMG 2021/2024 1200 BCFG PROB30
TEMPO 2023/2106 0600 FG
BECMG 2105/2108 22008KT 9999 NSW SCT020
BECMG 2121/2124 31004KT 6000 -DZRA SCT012 BKN016


Example: see airport list